Time;durP1;ratioP1;P1;durP2;ratioP2;P2;SDS_P1;SDS_P2;PMS_P1;PMS_P2;Temp;Humidity;BMP_temperature;BMP_pressure;BME280_temperature;BME280_humidity;BME280_pressure;Samples;Min_cycle;Max_cycle;Signal;HPM_P1;HPM_P2
2021/12/22 00:00:07;;;;;;;327.15;71.28;;;;;;;0.07;56.22;100674.09;340799;29;1663;-70
2021/12/22 00:00:17;;;;;;;328.83;72.70;;;;;;;0.06;56.60;100667.19;339820;29;2029;-70
2021/12/22 00:00:27;;;;;;;326.98;71.47;;;;;;;0.05;56.56;100673.19;339989;29;1413;-70
2021/12/22 00:00:38;;;;;;;327.03;71.43;;;;;;;0.04;57.08;100671.44;338010;28;1268;-70
2021/12/22 00:00:48;;;;;;;325.88;70.00;;;;;;;0.05;56.34;100665.47;339272;29;1459;-70
2021/12/22 00:00:59;;;;;;;326.13;69.83;;;;;;;0.07;57.08;100668.94;341381;28;1861;-70
2021/12/22 00:01:09;;;;;;;325.60;70.33;;;;;;;0.08;57.09;100672.38;337614;29;1290;-70
2021/12/22 00:01:23;;;;;;;328.60;70.93;;;;;;;0.07;56.95;100668.94;336509;29;1321;-70
2021/12/22 00:01:35;;;;;;;329.17;72.05;;;;;;;0.09;57.05;100672.41;337978;29;1315;-70
2021/12/22 00:01:45;;;;;;;326.95;71.72;;;;;;;0.08;56.44;100667.22;338084;29;1409;-70
2021/12/22 00:01:57;;;;;;;326.80;71.23;;;;;;;0.06;56.06;100672.34;338242;29;2106;-70
2021/12/22 00:02:07;;;;;;;327.23;71.50;;;;;;;0.06;56.48;100669.78;336856;29;936;-70
2021/12/22 00:02:18;;;;;;;326.27;70.18;;;;;;;0.07;56.46;100668.94;339575;29;2075;-70
2021/12/22 00:02:31;;;;;;;328.17;71.50;;;;;;;0.07;56.51;100666.34;339331;29;1473;-70
2021/12/22 00:02:48;;;;;;;327.23;71.38;;;;;;;0.09;56.14;100668.97;336994;29;1986;-70
2021/12/22 00:02:58;;;;;;;325.80;70.18;;;;;;;0.10;56.60;100660.41;339478;29;2022;-70
2021/12/22 00:03:09;;;;;;;326.40;69.97;;;;;;;0.12;56.50;100671.59;340846;29;1217;-70
2021/12/22 00:03:20;;;;;;;327.83;71.43;;;;;;;0.12;56.29;100664.75;343582;28;1459;-70
2021/12/22 00:03:30;;;;;;;328.48;72.10;;;;;;;0.12;56.66;100664.75;341869;28;3487;-70
2021/12/22 00:03:45;;;;;;;329.00;72.47;;;;;;;0.13;55.87;100666.47;340582;28;2117;-70
2021/12/22 00:03:56;;;;;;;326.95;71.18;;;;;;;0.12;56.71;100664.75;338340;29;909;-70
2021/12/22 00:04:06;;;;;;;327.03;70.33;;;;;;;0.13;55.93;100670.75;339375;29;843;-70
2021/12/22 00:04:17;;;;;;;327.45;70.18;;;;;;;0.13;57.02;100665.59;337805;29;1826;-70
2021/12/22 00:04:27;;;;;;;325.77;69.90;;;;;;;0.13;56.61;100663.91;338517;29;1945;-70
2021/12/22 00:04:44;;;;;;;326.02;69.82;;;;;;;0.14;56.94;100668.22;339182;29;898;-70
2021/12/22 00:04:56;;;;;;;326.75;70.25;;;;;;;0.13;56.51;100663.91;339746;29;869;-70
2021/12/22 00:05:07;;;;;;;326.13;70.30;;;;;;;0.14;56.54;100663.06;342201;28;1078;-70
2021/12/22 00:05:26;;;;;;;327.07;70.70;;;;;;;0.15;56.76;100663.94;339132;29;1762;-70
2021/12/22 00:05:43;;;;;;;329.45;70.75;;;;;;;0.15;56.94;100669.94;337801;29;1800;-70
2021/12/22 00:05:54;;;;;;;327.67;70.60;;;;;;;0.13;56.53;100674.19;338264;29;1289;-70
2021/12/22 00:06:04;;;;;;;326.42;70.75;;;;;;;0.13;56.57;100663.03;337022;29;1883;-70
2021/12/22 00:06:19;;;;;;;326.33;71.87;;;;;;;0.14;56.48;100663.06;336669;29;1274;-70
2021/12/22 00:06:32;;;;;;;325.33;71.93;;;;;;;0.14;56.81;100668.22;339178;29;960;-70
2021/12/22 00:06:42;;;;;;;325.95;72.15;;;;;;;0.13;56.35;100663.91;336878;29;2021;-71
2021/12/22 00:06:53;;;;;;;327.85;72.80;;;;;;;0.15;56.03;100669.06;339360;29;907;-70
2021/12/22 00:07:03;;;;;;;328.73;72.80;;;;;;;0.13;56.34;100669.06;339207;29;2185;-70
2021/12/22 00:07:14;;;;;;;329.80;72.57;;;;;;;0.11;55.80;100663.00;339741;29;3817;-70
2021/12/22 00:07:24;;;;;;;328.73;72.07;;;;;;;0.12;56.61;100674.16;337813;29;5464;-70
2021/12/22 00:07:34;;;;;;;328.27;71.50;;;;;;;0.10;56.40;100674.13;338909;29;5349;-70
2021/12/22 00:07:45;;;;;;;329.03;72.03;;;;;;;0.08;56.21;100668.09;335427;29;1822;-70
2021/12/22 00:07:55;;;;;;;329.27;72.50;;;;;;;0.09;56.31;100674.97;338660;29;5426;-70
2021/12/22 00:08:06;;;;;;;329.87;73.10;;;;;;;0.10;56.48;100675.84;338081;29;819;-70
2021/12/22 00:08:17;;;;;;;328.38;72.53;;;;;;;0.09;56.24;100674.97;338033;29;952;-70
2021/12/22 00:08:29;;;;;;;327.65;71.75;;;;;;;0.08;56.36;100673.25;335967;29;3409;-70
2021/12/22 00:08:39;;;;;;;327.65;72.32;;;;;;;0.10;56.15;100671.56;338056;28;3377;-70
2021/12/22 00:08:50;;;;;;;327.77;73.57;;;;;;;0.11;56.31;100672.44;339092;29;3602;-70
2021/12/22 00:09:01;;;;;;;330.17;75.40;;;;;;;0.09;56.19;100674.97;340648;29;1250;-71
2021/12/22 00:09:11;;;;;;;329.20;75.22;;;;;;;0.08;56.42;100668.09;339409;29;2172;-70
2021/12/22 00:09:22;;;;;;;328.42;73.85;;;;;;;0.08;56.31;100673.25;336599;29;1446;-70
2021/12/22 00:09:32;;;;;;;326.90;71.60;;;;;;;0.07;56.08;100674.09;339603;28;3625;-70
2021/12/22 00:09:42;;;;;;;329.38;72.03;;;;;;;0.05;56.72;100673.19;339291;29;4999;-70
2021/12/22 00:09:53;;;;;;;330.83;73.13;;;;;;;0.04;55.83;100681.75;337192;29;3221;-70
2021/12/22 00:10:03;;;;;;;332.33;74.60;;;;;;;0.02;56.79;100670.56;339537;28;1920;-70
2021/12/22 00:10:14;;;;;;;331.52;73.63;;;;;;;0.04;56.06;100671.44;340944;28;3836;-70
2021/12/22 00:10:25;;;;;;;331.77;73.30;;;;;;;0.05;56.20;100673.19;340444;28;1466;-70
2021/12/22 00:10:35;;;;;;;330.05;72.43;;;;;;;0.05;56.41;100675.75;339729;29;964;-70
2021/12/22 00:10:46;;;;;;;328.60;71.07;;;;;;;0.07;56.13;100671.50;340247;28;3159;-70
2021/12/22 00:10:56;;;;;;;327.20;71.18;;;;;;;0.08;56.51;100673.25;340394;28;6116;-70
2021/12/22 00:11:09;;;;;;;329.42;73.40;;;;;;;0.07;56.10;100674.09;338253;29;5784;-70
2021/12/22 00:11:20;;;;;;;331.80;74.90;;;;;;;0.06;56.17;100667.19;339726;29;5418;-70
2021/12/22 00:11:30;;;;;;;331.50;74.20;;;;;;;0.06;55.69;100674.91;338080;29;1859;-70
2021/12/22 00:11:41;;;;;;;330.13;72.90;;;;;;;0.05;56.29;100673.19;340937;28;1904;-70
2021/12/22 00:11:51;;;;;;;328.97;71.57;;;;;;;0.07;56.01;100676.66;339367;29;3256;-70
2021/12/22 00:12:02;;;;;;;332.73;71.97;;;;;;;0.08;55.83;100668.09;339143;28;6356;-70
2021/12/22 00:12:12;;;;;;;334.30;73.07;;;;;;;0.07;56.01;100671.50;339364;29;3878;-70
2021/12/22 00:12:23;;;;;;;336.90;74.40;;;;;;;0.07;56.14;100666.34;338486;29;1186;-70
2021/12/22 00:12:33;;;;;;;334.65;75.05;;;;;;;0.06;55.82;100677.50;339386;29;3473;-70
2021/12/22 00:12:44;;;;;;;334.77;75.13;;;;;;;0.06;56.37;100666.34;333912;29;6552;-70
2021/12/22 00:12:54;;;;;;;335.02;76.60;;;;;;;0.05;55.65;100673.19;337342;28;3829;-70
2021/12/22 00:13:05;;;;;;;336.08;77.00;;;;;;;0.04;55.70;100674.03;339657;28;1044;-70
2021/12/22 00:13:15;;;;;;;337.07;76.43;;;;;;;0.04;56.19;100678.31;339409;29;2024;-70
2021/12/22 00:13:25;;;;;;;334.00;72.38;;;;;;;0.03;56.65;100677.44;337780;29;3937;-70
2021/12/22 00:13:36;;;;;;;333.77;72.97;;;;;;;0.01;56.05;100668.81;339598;28;1221;-70
2021/12/22 00:13:46;;;;;;;332.15;72.28;;;;;;;0.02;56.79;100677.41;338185;29;2279;-70
2021/12/22 00:13:57;;;;;;;332.37;73.83;;;;;;;0.01;55.80;100679.09;339292;29;2001;-70
2021/12/22 00:14:07;;;;;;;332.45;73.13;;;;;;;0.01;56.46;100676.53;339623;29;924;-70
2021/12/22 00:14:17;;;;;;;332.77;73.90;;;;;;;-0.01;56.02;100673.97;337859;29;2077;-70
2021/12/22 00:14:28;;;;;;;332.92;73.28;;;;;;;0.00;56.29;100680.81;339763;29;1384;-70
2021/12/22 00:14:38;;;;;;;333.43;75.07;;;;;;;0.00;56.27;100675.66;339364;29;3721;-70
2021/12/22 00:14:49;;;;;;;333.52;75.22;;;;;;;-0.01;56.38;100673.09;339539;29;2198;-71
2021/12/22 00:14:59;;;;;;;334.07;75.77;;;;;;;0.00;56.71;100677.41;340695;29;1382;-71
2021/12/22 00:15:10;;;;;;;333.83;75.87;;;;;;;-0.01;55.84;100673.09;340811;29;2069;-71
2021/12/22 00:15:20;;;;;;;334.30;76.78;;;;;;;-0.03;56.52;100670.50;336912;29;901;-71
2021/12/22 00:15:31;;;;;;;333.50;77.10;;;;;;;0.00;55.75;100672.25;340590;29;1361;-71
2021/12/22 00:15:41;;;;;;;332.27;74.55;;;;;;;0.00;56.23;100669.69;339718;29;2235;-71
2021/12/22 00:15:52;;;;;;;330.93;73.47;;;;;;;0.00;56.14;100679.97;341289;29;989;-70
2021/12/22 00:16:02;;;;;;;329.85;71.90;;;;;;;-0.01;56.03;100667.94;338503;29;1746;-70
2021/12/22 00:16:13;;;;;;;331.67;73.47;;;;;;;0.01;56.13;100673.97;339907;29;1984;-70
2021/12/22 00:16:24;;;;;;;332.13;73.97;;;;;;;0.00;56.32;100669.69;340033;29;832;-70
2021/12/22 00:16:34;;;;;;;334.10;74.43;;;;;;;0.01;56.73;100671.38;342413;28;2100;-70
2021/12/22 00:16:44;;;;;;;333.00;73.53;;;;;;;0.00;56.43;100672.25;339175;28;1535;-70
2021/12/22 00:16:55;;;;;;;332.65;73.65;;;;;;;-0.01;56.44;100676.53;342576;28;865;-70
2021/12/22 00:17:05;;;;;;;331.70;73.83;;;;;;;-0.03;56.13;100677.34;341219;29;2258;-70
2021/12/22 00:17:16;;;;;;;332.30;74.80;;;;;;;-0.06;56.98;100670.44;343305;28;2106;-70
2021/12/22 00:17:26;;;;;;;332.33;73.93;;;;;;;-0.07;56.14;100671.28;342358;28;1352;-71
2021/12/22 00:17:36;;;;;;;333.10;74.32;;;;;;;-0.08;56.53;100673.81;342455;28;905;-70
2021/12/22 00:17:47;;;;;;;333.87;74.97;;;;;;;-0.07;55.95;100673.84;336602;29;1998;-70
2021/12/22 00:17:57;;;;;;;332.63;75.20;;;;;;;-0.06;56.26;100669.56;336592;28;1718;-71
2021/12/22 00:18:08;;;;;;;333.97;75.03;;;;;;;-0.03;56.14;100673.06;339018;28;1783;-70
2021/12/22 00:18:18;;;;;;;332.90;73.53;;;;;;;-0.02;56.18;100671.38;341906;28;2041;-70
2021/12/22 00:18:28;;;;;;;332.20;72.47;;;;;;;-0.03;56.54;100674.78;342509;28;2262;-70
2021/12/22 00:18:39;;;;;;;330.23;72.87;;;;;;;-0.02;56.19;100666.22;344735;28;960;-70
2021/12/22 00:18:49;;;;;;;330.67;73.33;;;;;;;-0.03;56.33;100669.63;339608;28;3187;-71
2021/12/22 00:19:00;;;;;;;332.30;73.93;;;;;;;-0.02;56.38;100671.38;338199;29;1654;-71
2021/12/22 00:19:10;;;;;;;333.60;74.30;;;;;;;-0.01;56.52;100667.94;340826;29;1790;-71
2021/12/22 00:19:20;;;;;;;331.77;73.57;;;;;;;0.00;56.58;100672.25;341953;28;968;-70
2021/12/22 00:19:31;;;;;;;331.07;74.67;;;;;;;0.01;56.14;100671.38;339432;29;1869;-70
2021/12/22 00:19:41;;;;;;;330.70;74.67;;;;;;;0.00;56.63;100670.53;338430;29;1768;-70
2021/12/22 00:19:52;;;;;;;332.92;76.22;;;;;;;0.00;55.97;100670.53;339445;29;1795;-70
2021/12/22 00:20:04;;;;;;;333.23;75.87;;;;;;;0.02;56.10;100667.97;338359;29;2183;-70
2021/12/22 00:20:14;;;;;;;332.67;74.57;;;;;;;0.03;56.83;100669.72;339302;28;1550;-70
2021/12/22 00:20:25;;;;;;;331.05;72.65;;;;;;;0.04;56.23;100671.44;336187;29;1673;-70
2021/12/22 00:20:35;;;;;;;330.92;72.70;;;;;;;0.04;56.01;100671.44;338303;29;2186;-70
2021/12/22 00:20:45;;;;;;;332.03;73.23;;;;;;;0.02;56.31;100673.13;339741;29;1649;-70
2021/12/22 00:20:56;;;;;;;332.40;74.32;;;;;;;0.02;56.36;100673.13;341150;29;2015;-70
2021/12/22 00:21:06;;;;;;;331.60;72.90;;;;;;;0.01;55.72;100671.38;340202;29;1736;-70
2021/12/22 00:21:17;;;;;;;331.92;74.25;;;;;;;-0.01;55.93;100671.41;338417;29;1508;-70
2021/12/22 00:21:27;;;;;;;332.23;73.20;;;;;;;0.00;56.48;100672.25;342299;28;1692;-70
2021/12/22 00:21:37;;;;;;;332.98;74.15;;;;;;;-0.01;56.75;100673.09;342327;28;2033;-70
2021/12/22 00:21:48;;;;;;;333.10;73.77;;;;;;;-0.01;56.52;100667.94;342334;28;2307;-70
2021/12/22 00:21:58;;;;;;;335.20;74.30;;;;;;;-0.01;55.81;100668.81;338124;29;2170;-70
2021/12/22 00:22:09;;;;;;;336.00;74.47;;;;;;;-0.01;56.62;100667.94;337916;29;1611;-70
2021/12/22 00:22:19;;;;;;;334.10;73.13;;;;;;;0.00;55.78;100669.69;338510;29;1562;-70
2021/12/22 00:22:29;;;;;;;331.98;73.20;;;;;;;0.00;55.98;100669.69;339639;29;1892;-70
2021/12/22 00:22:40;;;;;;;332.43;74.03;;;;;;;-0.01;56.63;100667.94;337515;29;1196;-70
2021/12/22 00:22:50;;;;;;;335.02;77.00;;;;;;;-0.01;56.25;100673.09;339003;28;924;-70
2021/12/22 00:23:01;;;;;;;336.37;79.27;;;;;;;-0.02;56.11;100672.22;341819;28;1375;-70
2021/12/22 00:23:11;;;;;;;336.35;78.70;;;;;;;-0.01;55.57;100673.97;340719;28;1740;-70
2021/12/22 00:23:22;;;;;;;334.93;75.33;;;;;;;-0.02;56.43;100672.22;339286;29;1197;-70
2021/12/22 00:23:32;;;;;;;333.17;73.20;;;;;;;-0.02;56.31;100673.94;338035;29;1891;-70
2021/12/22 00:23:43;;;;;;;332.13;72.70;;;;;;;-0.02;56.25;100668.78;339519;29;986;-70
2021/12/22 00:23:53;;;;;;;330.87;73.80;;;;;;;-0.03;56.40;100677.34;343420;28;1372;-70
2021/12/22 00:24:04;;;;;;;331.27;73.60;;;;;;;-0.04;56.17;100673.91;343246;28;1773;-70
2021/12/22 00:24:14;;;;;;;331.77;74.03;;;;;;;-0.03;56.64;100669.63;341748;28;1807;-70
2021/12/22 00:24:25;;;;;;;333.47;74.87;;;;;;;-0.04;56.23;100668.75;337897;29;1388;-70
2021/12/22 00:24:35;;;;;;;333.80;74.73;;;;;;;-0.04;55.88;100679.06;339089;29;2080;-70
2021/12/22 00:24:45;;;;;;;332.63;74.00;;;;;;;-0.03;56.07;100670.50;338775;29;2083;-70
2021/12/22 00:24:56;;;;;;;332.30;73.60;;;;;;;-0.05;56.19;100671.31;338046;29;1764;-70
2021/12/22 00:25:06;;;;;;;332.08;73.30;;;;;;;-0.06;56.30;100674.72;339066;29;1319;-70
2021/12/22 00:25:17;;;;;;;332.33;73.57;;;;;;;-0.07;56.27;100672.97;338172;29;2209;-70
2021/12/22 00:25:28;;;;;;;331.90;72.97;;;;;;;-0.09;56.21;100666.94;339352;29;1880;-70
2021/12/22 00:25:38;;;;;;;331.60;73.10;;;;;;;-0.10;56.06;100673.78;341100;29;866;-70
2021/12/22 00:25:48;;;;;;;331.93;73.63;;;;;;;-0.08;56.21;100671.25;341387;28;2069;-70
2021/12/22 00:25:59;;;;;;;332.05;73.63;;;;;;;-0.08;56.81;100676.38;340269;28;2189;-70
2021/12/22 00:26:09;;;;;;;331.47;72.17;;;;;;;-0.08;56.58;100676.38;338587;29;1883;-70
2021/12/22 00:26:20;;;;;;;331.53;71.40;;;;;;;-0.07;56.17;100668.69;341008;28;1419;-70
2021/12/22 00:26:30;;;;;;;330.87;71.20;;;;;;;-0.06;56.62;100674.72;340981;28;1549;-70
2021/12/22 00:26:41;;;;;;;331.25;72.45;;;;;;;-0.07;56.48;100676.41;340857;28;2298;-70
2021/12/22 00:26:53;;;;;;;332.65;72.50;;;;;;;-0.08;56.17;100677.25;342782;28;1562;-70
2021/12/22 00:27:03;;;;;;;331.55;71.85;;;;;;;-0.06;56.63;100674.72;339560;29;1699;-70
2021/12/22 00:27:14;;;;;;;330.60;71.23;;;;;;;-0.08;56.31;100666.09;339780;29;848;-70
2021/12/22 00:27:24;;;;;;;331.13;71.63;;;;;;;-0.07;56.33;100672.97;339481;29;1598;-70
2021/12/22 00:27:35;;;;;;;331.90;72.60;;;;;;;-0.07;55.95;100675.56;338456;29;1878;-70
2021/12/22 00:27:45;;;;;;;333.27;73.60;;;;;;;-0.07;56.63;100678.13;338189;28;1564;-70
2021/12/22 00:27:57;;;;;;;332.65;74.18;;;;;;;-0.07;56.38;100678.13;338001;28;1519;-70
2021/12/22 00:28:07;;;;;;;332.10;73.95;;;;;;;-0.08;56.32;100677.25;340567;29;1502;-70
2021/12/22 00:28:18;;;;;;;331.63;74.03;;;;;;;-0.08;56.71;100681.53;340298;29;2018;-70
2021/12/22 00:28:28;;;;;;;331.27;73.90;;;;;;;-0.09;56.64;100675.53;338053;28;1520;-70
2021/12/22 00:28:40;;;;;;;331.00;73.60;;;;;;;-0.09;56.24;100677.22;343262;28;1393;-70
2021/12/22 00:28:50;;;;;;;330.55;72.55;;;;;;;-0.09;56.51;100670.38;341891;28;1428;-70
2021/12/22 00:29:01;;;;;;;330.05;71.68;;;;;;;-0.08;56.58;100676.38;341804;28;2018;-71
2021/12/22 00:29:13;;;;;;;332.57;72.97;;;;;;;-0.10;56.32;100673.78;339399;29;1852;-71
2021/12/22 00:29:23;;;;;;;331.48;73.03;;;;;;;-0.10;56.93;100678.94;340556;29;1708;-70
2021/12/22 00:29:34;;;;;;;330.05;71.47;;;;;;;-0.09;56.43;100679.81;339145;29;2032;-70
2021/12/22 00:29:48;;;;;;;328.53;71.27;;;;;;;-0.10;56.88;100663.50;340530;29;1885;-70
2021/12/22 00:29:58;;;;;;;329.70;71.55;;;;;;;-0.07;56.75;100678.13;338032;29;2173;-70
2021/12/22 00:30:10;;;;;;;330.97;72.27;;;;;;;-0.07;56.04;100678.13;339463;29;1559;-70
2021/12/22 00:30:20;;;;;;;331.02;71.45;;;;;;;-0.08;56.47;100678.97;340646;29;2105;-70
2021/12/22 00:30:31;;;;;;;329.98;71.05;;;;;;;-0.09;56.92;100675.53;338740;29;1862;-70
2021/12/22 00:30:41;;;;;;;329.03;70.27;;;;;;;-0.07;56.39;100673.84;338192;29;1329;-70
2021/12/22 00:30:52;;;;;;;328.45;69.65;;;;;;;-0.07;56.60;100679.00;339498;29;3356;-70
2021/12/22 00:31:10;;;;;;;330.17;70.35;;;;;;;-0.08;56.58;100676.38;340973;29;2065;-70
2021/12/22 00:31:22;;;;;;;332.00;72.28;;;;;;;-0.07;56.56;100675.56;340857;29;2017;-70
2021/12/22 00:31:40;;;;;;;329.85;72.40;;;;;;;-0.08;56.41;100677.25;339536;28;1896;-70
2021/12/22 00:32:11;;;;;;;328.52;70.05;;;;;;;-0.09;56.47;100675.53;339282;29;1853;-70
2021/12/22 00:32:22;;;;;;;330.67;71.88;;;;;;;-0.10;55.92;100681.50;338298;29;1981;-70
2021/12/22 00:32:35;;;;;;;329.35;69.88;;;;;;;-0.09;56.28;100679.81;339566;28;1741;-70
2021/12/22 00:32:53;;;;;;;329.25;70.82;;;;;;;-0.08;56.09;100678.97;337361;29;1655;-70
2021/12/22 00:33:06;;;;;;;329.92;72.22;;;;;;;-0.08;55.90;100678.97;338743;28;2244;-70
2021/12/22 00:33:17;;;;;;;331.30;72.45;;;;;;;-0.09;56.11;100682.38;337286;29;1639;-70
2021/12/22 00:33:30;;;;;;;332.46;72.36;;;;;;;-0.07;56.48;100688.41;339428;29;1879;-70
2021/12/22 00:33:48;;;;;;;331.23;71.45;;;;;;;-0.07;56.00;100678.13;340380;29;1733;-70
2021/12/22 00:33:58;;;;;;;330.63;71.95;;;;;;;-0.05;56.52;100679.88;339373;28;1155;-71
2021/12/22 00:34:16;;;;;;;333.48;71.55;;;;;;;-0.06;56.21;100675.59;339316;29;1862;-71
2021/12/22 00:34:27;;;;;;;333.02;70.07;;;;;;;-0.06;55.92;100680.72;338108;29;1788;-71
2021/12/22 00:34:46;;;;;;;328.45;70.13;;;;;;;-0.05;56.07;100682.47;339425;29;940;-71
2021/12/22 00:34:56;;;;;;;328.73;71.97;;;;;;;-0.08;55.96;100677.25;339275;29;1556;-71
2021/12/22 00:35:09;;;;;;;330.43;72.87;;;;;;;-0.03;56.54;100687.63;337872;29;2348;-71
2021/12/22 00:35:21;;;;;;;330.45;73.50;;;;;;;-0.04;56.06;100679.06;336673;29;1428;-70
2021/12/22 00:35:38;;;;;;;328.58;72.07;;;;;;;-0.03;56.51;100685.06;339123;29;2015;-70
2021/12/22 00:35:49;;;;;;;327.58;70.10;;;;;;;-0.02;56.08;100686.81;340351;29;1480;-70
2021/12/22 00:35:59;;;;;;;328.17;70.53;;;;;;;-0.02;55.94;100685.09;340797;29;2066;-70
2021/12/22 00:36:10;;;;;;;328.20;71.10;;;;;;;-0.02;56.77;100679.09;339891;29;1733;-70
2021/12/22 00:36:22;;;;;;;329.33;71.70;;;;;;;-0.04;56.08;100683.34;339681;29;1777;-70
2021/12/22 00:36:32;;;;;;;330.98;72.90;;;;;;;-0.05;55.66;100687.59;337677;29;1939;-70
2021/12/22 00:36:45;;;;;;;330.40;72.75;;;;;;;-0.06;56.42;100685.00;340756;29;2085;-70
2021/12/22 00:36:56;;;;;;;328.20;72.18;;;;;;;-0.07;56.54;100683.28;339674;29;879;-70
2021/12/22 00:37:06;;;;;;;328.65;72.82;;;;;;;-0.06;55.86;100679.88;340206;29;2216;-70
2021/12/22 00:37:21;;;;;;;329.27;73.33;;;;;;;-0.06;56.13;100685.00;341089;28;1028;-71
2021/12/22 00:37:32;;;;;;;329.48;72.15;;;;;;;-0.06;55.95;100682.44;340987;29;1727;-71
2021/12/22 00:37:42;;;;;;;330.60;72.43;;;;;;;-0.06;56.26;100685.00;338481;29;1665;-71
2021/12/22 00:37:52;;;;;;;330.63;72.63;;;;;;;-0.06;56.70;100690.16;334923;29;1345;-71
2021/12/22 00:38:03;;;;;;;332.45;73.97;;;;;;;-0.08;56.45;100687.56;335560;29;1443;-71
2021/12/22 00:38:16;;;;;;;332.33;74.45;;;;;;;-0.08;55.88;100686.69;339099;29;1937;-71
2021/12/22 00:38:26;;;;;;;331.15;74.03;;;;;;;-0.10;56.11;100685.78;340403;28;1544;-70
2021/12/22 00:38:37;;;;;;;331.10;72.40;;;;;;;-0.13;56.27;100688.28;340496;29;1901;-70
2021/12/22 00:38:47;;;;;;;329.45;70.55;;;;;;;-0.15;57.09;100689.97;340508;29;2103;-70
2021/12/22 00:38:58;;;;;;;329.57;70.47;;;;;;;-0.17;56.29;100687.38;338031;29;2097;-70
2021/12/22 00:39:08;;;;;;;330.20;71.90;;;;;;;-0.18;56.72;100685.63;339921;29;1232;-70
2021/12/22 00:39:19;;;;;;;331.27;72.87;;;;;;;-0.18;56.46;100683.06;340642;29;1549;-70
2021/12/22 00:39:29;;;;;;;331.90;74.68;;;;;;;-0.16;56.89;100683.09;340369;28;1712;-70
2021/12/22 00:39:39;;;;;;;332.63;74.63;;;;;;;-0.16;56.50;100683.97;339637;29;1990;-70
2021/12/22 00:39:50;;;;;;;332.58;74.75;;;;;;;-0.17;56.16;100678.78;339410;28;1485;-70
2021/12/22 00:40:01;;;;;;;331.58;72.88;;;;;;;-0.18;56.78;100687.34;341081;28;1773;-70
2021/12/22 00:40:11;;;;;;;328.93;72.47;;;;;;;-0.17;56.36;100683.94;339165;29;1322;-70
2021/12/22 00:40:22;;;;;;;328.42;71.95;;;;;;;-0.14;56.56;100686.56;337885;29;2145;-70
2021/12/22 00:40:32;;;;;;;327.93;71.70;;;;;;;-0.15;56.67;100685.69;341037;28;1763;-70
2021/12/22 00:40:43;;;;;;;327.90;71.03;;;;;;;-0.15;56.90;100683.13;342091;28;1695;-71
2021/12/22 00:40:53;;;;;;;326.33;69.93;;;;;;;-0.15;56.43;100683.13;339710;29;1464;-70
2021/12/22 00:41:04;;;;;;;327.10;70.57;;;;;;;-0.15;56.50;100689.97;337817;29;1229;-70
2021/12/22 00:41:15;;;;;;;327.67;70.47;;;;;;;-0.14;56.74;100684.84;340993;28;2023;-70
2021/12/22 00:41:25;;;;;;;328.70;71.35;;;;;;;-0.13;56.82;100683.16;340941;29;1611;-70
2021/12/22 00:41:35;;;;;;;329.87;70.63;;;;;;;-0.14;55.75;100686.56;339743;29;2138;-70
2021/12/22 00:41:47;;;;;;;330.33;71.07;;;;;;;-0.14;56.30;100686.56;340184;29;1822;-70
2021/12/22 00:41:58;;;;;;;328.70;71.30;;;;;;;-0.12;56.27;100685.75;340939;29;2473;-70
2021/12/22 00:42:08;;;;;;;328.07;71.07;;;;;;;-0.11;56.17;100686.63;340931;28;1657;-70
2021/12/22 00:42:19;;;;;;;328.40;71.47;;;;;;;-0.11;56.26;100679.78;340108;29;2050;-70
2021/12/22 00:42:29;;;;;;;329.30;71.57;;;;;;;-0.11;56.15;100686.63;343260;28;2051;-70
2021/12/22 00:42:40;;;;;;;329.45;72.32;;;;;;;-0.12;56.61;100683.19;341897;28;1759;-70
2021/12/22 00:42:50;;;;;;;328.50;71.87;;;;;;;-0.12;56.65;100688.31;337961;28;1250;-71
2021/12/22 00:43:00;;;;;;;329.30;73.07;;;;;;;-0.10;55.83;100688.34;335891;29;1865;-71
2021/12/22 00:43:11;;;;;;;329.10;72.67;;;;;;;-0.10;56.32;100689.22;336700;29;875;-71
2021/12/22 00:43:21;;;;;;;329.27;72.03;;;;;;;-0.10;56.23;100683.22;339210;29;1608;-71
2021/12/22 00:43:32;;;;;;;328.93;70.63;;;;;;;-0.09;55.98;100679.81;337885;29;1679;-71
2021/12/22 00:43:42;;;;;;;328.85;70.57;;;;;;;-0.08;55.97;100682.41;340592;28;1185;-71
2021/12/22 00:43:53;;;;;;;329.37;71.37;;;;;;;-0.07;55.43;100689.28;340523;29;1739;-71
2021/12/22 00:44:03;;;;;;;328.38;71.68;;;;;;;-0.07;55.78;100683.28;340636;29;1902;-71
2021/12/22 00:44:14;;;;;;;327.98;71.25;;;;;;;-0.07;56.17;100683.28;335258;29;2052;-71
2021/12/22 00:44:25;;;;;;;327.23;71.87;;;;;;;-0.07;56.07;100679.00;339021;29;1796;-70
2021/12/22 00:44:36;;;;;;;327.15;71.53;;;;;;;-0.05;56.46;100676.44;339057;29;1331;-70
2021/12/22 00:44:50;;;;;;;327.47;71.73;;;;;;;-0.04;56.00;100683.34;338758;29;2078;-70
2021/12/22 00:45:00;;;;;;;329.28;72.06;;;;;;;-0.05;55.95;100679.03;339251;29;2108;-70
2021/12/22 00:45:11;;;;;;;329.43;72.97;;;;;;;-0.06;56.21;100687.56;339387;29;1920;-70
2021/12/22 00:45:24;;;;;;;328.13;72.18;;;;;;;-0.05;56.56;100677.31;337935;29;2231;-70
2021/12/22 00:45:35;;;;;;;326.63;70.57;;;;;;;-0.06;56.25;100685.88;337757;29;1965;-70
2021/12/22 00:45:48;;;;;;;328.13;71.57;;;;;;;-0.04;55.55;100683.34;342111;28;2491;-70
2021/12/22 00:45:58;;;;;;;328.73;73.20;;;;;;;-0.05;55.93;100684.16;340983;29;1751;-70
2021/12/22 00:46:08;;;;;;;328.37;73.33;;;;;;;-0.05;55.54;100681.59;341553;28;1467;-70
2021/12/22 00:46:19;;;;;;;329.35;73.90;;;;;;;-0.07;56.50;100679.00;341006;29;1283;-70
2021/12/22 00:46:29;;;;;;;329.60;73.17;;;;;;;-0.06;55.50;100682.44;339349;29;1809;-70
2021/12/22 00:46:40;;;;;;;328.58;72.43;;;;;;;-0.06;56.15;100682.44;337078;29;819;-70
2021/12/22 00:46:50;;;;;;;328.77;72.13;;;;;;;-0.06;55.58;100685.00;339357;29;1871;-70
2021/12/22 00:47:00;;;;;;;326.55;70.30;;;;;;;-0.07;55.34;100684.13;339675;29;2003;-70
2021/12/22 00:47:11;;;;;;;328.20;71.13;;;;;;;-0.07;55.92;100680.69;341076;29;1654;-70
2021/12/22 00:47:24;;;;;;;327.90;70.07;;;;;;;-0.07;55.58;100684.13;340616;29;1682;-70
2021/12/22 00:47:34;;;;;;;329.16;71.32;;;;;;;-0.06;55.38;100690.16;339922;29;2099;-70
2021/12/22 00:47:44;;;;;;;327.53;70.60;;;;;;;-0.05;55.57;100686.75;338503;29;1311;-70
2021/12/22 00:47:55;;;;;;;327.27;70.93;;;;;;;-0.06;55.82;100679.88;337923;29;707;-68
2021/12/22 00:48:07;;;;;;;327.50;71.28;;;;;;;-0.06;56.11;100679.88;340617;28;2115;-70
2021/12/22 00:48:17;;;;;;;328.45;71.38;;;;;;;-0.04;55.67;100680.75;339220;28;2062;-70
2021/12/22 00:48:27;;;;;;;328.33;72.20;;;;;;;-0.04;56.00;100686.78;338770;29;1573;-70
2021/12/22 00:48:38;;;;;;;328.58;73.28;;;;;;;-0.04;55.67;100683.34;337800;28;1403;-70
2021/12/22 00:48:49;;;;;;;327.63;72.40;;;;;;;-0.04;55.78;100678.19;339328;29;1898;-70
2021/12/22 00:48:59;;;;;;;328.93;73.10;;;;;;;-0.07;56.13;100680.69;340864;29;957;-70
2021/12/22 00:49:09;;;;;;;328.25;72.10;;;;;;;-0.07;56.38;100688.41;340243;29;1679;-70
2021/12/22 00:49:20;;;;;;;328.43;73.20;;;;;;;-0.07;55.97;100683.28;336572;29;1508;-70
2021/12/22 00:49:30;;;;;;;329.00;72.80;;;;;;;-0.08;55.92;100676.38;340594;28;1805;-70
2021/12/22 00:49:41;;;;;;;329.90;73.37;;;;;;;-0.10;56.24;100683.22;342109;28;1312;-70
2021/12/22 00:49:51;;;;;;;330.40;73.50;;;;;;;-0.11;56.01;100684.03;340940;28;2130;-70
2021/12/22 00:50:02;;;;;;;329.63;73.67;;;;;;;-0.12;55.61;100684.88;336736;29;2015;-72
2021/12/22 00:50:13;;;;;;;329.15;72.85;;;;;;;-0.11;55.68;100686.63;338147;29;1967;-71
2021/12/22 00:50:23;;;;;;;328.88;72.28;;;;;;;-0.10;56.26;100685.78;337746;29;2246;-71
2021/12/22 00:50:34;;;;;;;328.38;71.93;;;;;;;-0.11;56.53;100681.47;336834;29;1761;-71
2021/12/22 00:50:45;;;;;;;326.90;71.95;;;;;;;-0.11;56.21;100677.19;338913;29;2109;-71
2021/12/22 00:50:55;;;;;;;325.90;70.53;;;;;;;-0.09;56.36;100682.38;338401;29;1572;-71
2021/12/22 00:51:06;;;;;;;326.00;70.95;;;;;;;-0.09;56.34;100685.81;340614;28;1970;-71
2021/12/22 00:51:16;;;;;;;326.13;70.73;;;;;;;-0.10;55.77;100685.78;340871;28;1771;-71
2021/12/22 00:51:26;;;;;;;325.33;69.95;;;;;;;-0.10;56.04;100688.34;340901;28;921;-71